LBSF/SOF METAR and TAF weather

Enter ICAO airport designator
Station Type Date Time Source
LBSF METAR 2022/06/27 16:30 UTC NOAA

LBSF 271630Z 05004KT 360V100 9999 FEW065 27/14 Q1019 NOSIG


Station Type Date Time Source
LBSF Decoded METAR 2022/06/27 16:30 UTC NOAA

Sofia Observ. , Bulgaria (LBSF) 42-39N 023-23E 595M
Jun 27, 2022 - 12:30 PM EDT / 2022.06.27 1630 UTC
Wind: from the NE (050 degrees) at 5 MPH (4 KT) (direction variable):0
Visibility: greater than 7 mile(s):0
Sky conditions: mostly clear
Temperature: 80 F (27 C)
Dew Point: 57 F (14 C)
Relative Humidity: 44%
Pressure (altimeter): 30.09 in. Hg (1019 hPa)
ob: LBSF 271630Z 05004KT 360V100 9999 FEW065 27/14 Q1019 NOSIG
cycle: 16

Station Type Date Time Source
LBSF TAF 2022/06/27 12:18 UTC NOAA

TAF LBSF 271100Z 2712/2812 03010KT 9999 SCT040
BECMG 2718/2720 VRB04KT
TEMPO 2800/2805 3000 BR SCT010
BECMG 2808/2810 03010KT

Example: see airport list